sensor_id;sensor_type;location;lat;lon;timestamp;temperature;humidity
9699;DHT22;10089;47.876;8.346;2022-08-16T00:01:21;15.30;99.90
9699;DHT22;10089;47.876;8.346;2022-08-16T00:03:47;15.30;99.90
9699;DHT22;10089;47.876;8.346;2022-08-16T00:06:13;15.30;99.90
9699;DHT22;10089;47.876;8.346;2022-08-16T00:08:39;15.30;99.90
9699;DHT22;10089;47.876;8.346;2022-08-16T00:11:07;15.30;99.90
9699;DHT22;10089;47.876;8.346;2022-08-16T00:13:34;15.30;99.90
9699;DHT22;10089;47.876;8.346;2022-08-16T00:16:00;15.20;99.90
9699;DHT22;10089;47.876;8.346;2022-08-16T00:18:26;15.20;99.90
9699;DHT22;10089;47.876;8.346;2022-08-16T00:20:51;15.20;99.90
9699;DHT22;10089;47.876;8.346;2022-08-16T00:23:17;15.30;99.90
9699;DHT22;10089;47.876;8.346;2022-08-16T00:25:43;15.40;99.90
9699;DHT22;10089;47.876;8.346;2022-08-16T00:28:09;15.40;99.90
9699;DHT22;10089;47.876;8.346;2022-08-16T00:30:35;15.40;99.90
9699;DHT22;10089;47.876;8.346;2022-08-16T00:33:02;15.20;99.90
9699;DHT22;10089;47.876;8.346;2022-08-16T00:35:32;15.30;99.90
9699;DHT22;10089;47.876;8.346;2022-08-16T00:37:59;15.20;99.90
9699;DHT22;10089;47.876;8.346;2022-08-16T00:40:40;15.10;99.90
9699;DHT22;10089;47.876;8.346;2022-08-16T00:43:14;15.00;99.90
9699;DHT22;10089;47.876;8.346;2022-08-16T00:48:19;14.90;99.90
9699;DHT22;10089;47.876;8.346;2022-08-16T00:50:45;14.80;99.90
9699;DHT22;10089;47.876;8.346;2022-08-16T00:53:13;14.70;99.90
9699;DHT22;10089;47.876;8.346;2022-08-16T00:55:44;14.90;99.90
9699;DHT22;10089;47.876;8.346;2022-08-16T00:58:12;14.70;99.90
9699;DHT22;10089;47.876;8.346;2022-08-16T01:00:39;14.90;99.90
9699;DHT22;10089;47.876;8.346;2022-08-16T01:03:08;15.00;99.90
9699;DHT22;10089;47.876;8.346;2022-08-16T01:05:35;14.90;99.90
9699;DHT22;10089;47.876;8.346;2022-08-16T01:08:02;15.00;99.90
9699;DHT22;10089;47.876;8.346;2022-08-16T01:10:30;15.00;99.90
9699;DHT22;10089;47.876;8.346;2022-08-16T01:12:58;15.00;99.90
9699;DHT22;10089;47.876;8.346;2022-08-16T01:15:25;15.00;99.90
9699;DHT22;10089;47.876;8.346;2022-08-16T01:17:53;15.00;99.90
9699;DHT22;10089;47.876;8.346;2022-08-16T01:20:21;15.10;99.90
9699;DHT22;10089;47.876;8.346;2022-08-16T01:23:07;15.10;99.90
9699;DHT22;10089;47.876;8.346;2022-08-16T01:25:39;15.00;99.90
9699;DHT22;10089;47.876;8.346;2022-08-16T01:28:13;14.80;99.90
9699;DHT22;10089;47.876;8.346;2022-08-16T01:30:43;14.70;99.90
9699;DHT22;10089;47.876;8.346;2022-08-16T01:33:09;14.80;99.90
9699;DHT22;10089;47.876;8.346;2022-08-16T01:35:45;14.80;99.90
9699;DHT22;10089;47.876;8.346;2022-08-16T01:38:46;14.90;99.90
9699;DHT22;10089;47.876;8.346;2022-08-16T01:41:16;15.00;99.90
9699;DHT22;10089;47.876;8.346;2022-08-16T01:43:44;15.00;99.90
9699;DHT22;10089;47.876;8.346;2022-08-16T01:46:32;13.50;99.90
9699;DHT22;10089;47.876;8.346;2022-08-16T01:49:05;15.10;99.90
9699;DHT22;10089;47.876;8.346;2022-08-16T01:51:31;15.00;99.90
9699;DHT22;10089;47.876;8.346;2022-08-16T01:53:57;15.00;99.90
9699;DHT22;10089;47.876;8.346;2022-08-16T01:56:25;14.90;99.90
9699;DHT22;10089;47.876;8.346;2022-08-16T01:58:56;14.70;99.90
9699;DHT22;10089;47.876;8.346;2022-08-16T02:01:22;14.90;99.90
9699;DHT22;10089;47.876;8.346;2022-08-16T02:03:48;15.00;99.90
9699;DHT22;10089;47.876;8.346;2022-08-16T02:06:14;14.80;99.90
9699;DHT22;10089;47.876;8.346;2022-08-16T02:08:40;14.60;99.90
9699;DHT22;10089;47.876;8.346;2022-08-16T02:11:07;14.70;99.90
9699;DHT22;10089;47.876;8.346;2022-08-16T02:13:38;14.80;99.90
9699;DHT22;10089;47.876;8.346;2022-08-16T02:16:06;14.80;99.90
9699;DHT22;10089;47.876;8.346;2022-08-16T02:18:33;14.70;99.90
9699;DHT22;10089;47.876;8.346;2022-08-16T02:20:59;14.60;99.90
9699;DHT22;10089;47.876;8.346;2022-08-16T02:23:26;14.50;99.90
9699;DHT22;10089;47.876;8.346;2022-08-16T02:25:52;14.40;99.90
9699;DHT22;10089;47.876;8.346;2022-08-16T02:28:19;14.50;99.90
9699;DHT22;10089;47.876;8.346;2022-08-16T02:30:45;14.60;99.90
9699;DHT22;10089;47.876;8.346;2022-08-16T02:33:11;14.40;99.90
9699;DHT22;10089;47.876;8.346;2022-08-16T02:35:38;14.30;99.90
9699;DHT22;10089;47.876;8.346;2022-08-16T02:38:04;14.30;99.90
9699;DHT22;10089;47.876;8.346;2022-08-16T02:40:31;14.30;99.90
9699;DHT22;10089;47.876;8.346;2022-08-16T02:42:57;14.40;99.90
9699;DHT22;10089;47.876;8.346;2022-08-16T02:45:25;14.60;99.90
9699;DHT22;10089;47.876;8.346;2022-08-16T02:47:52;14.60;99.90
9699;DHT22;10089;47.876;8.346;2022-08-16T02:50:18;14.60;99.90
9699;DHT22;10089;47.876;8.346;2022-08-16T02:52:44;14.60;99.90
9699;DHT22;10089;47.876;8.346;2022-08-16T02:55:11;14.50;99.90
9699;DHT22;10089;47.876;8.346;2022-08-16T02:57:37;14.40;99.90
9699;DHT22;10089;47.876;8.346;2022-08-16T03:00:07;14.50;99.90
9699;DHT22;10089;47.876;8.346;2022-08-16T03:02:34;14.50;99.90
9699;DHT22;10089;47.876;8.346;2022-08-16T03:05:01;14.40;99.90
9699;DHT22;10089;47.876;8.346;2022-08-16T03:07:26;14.40;99.90
9699;DHT22;10089;47.876;8.346;2022-08-16T03:09:52;14.20;99.90
9699;DHT22;10089;47.876;8.346;2022-08-16T03:12:18;14.10;99.90
9699;DHT22;10089;47.876;8.346;2022-08-16T03:14:44;14.20;99.90
9699;DHT22;10089;47.876;8.346;2022-08-16T03:17:11;14.20;99.90
9699;DHT22;10089;47.876;8.346;2022-08-16T03:19:36;14.20;99.90
9699;DHT22;10089;47.876;8.346;2022-08-16T03:22:03;14.20;99.90
9699;DHT22;10089;47.876;8.346;2022-08-16T03:24:28;14.30;99.90
9699;DHT22;10089;47.876;8.346;2022-08-16T03:26:57;14.20;99.90
9699;DHT22;10089;47.876;8.346;2022-08-16T03:29:23;14.10;99.90
9699;DHT22;10089;47.876;8.346;2022-08-16T03:31:52;14.20;99.90
9699;DHT22;10089;47.876;8.346;2022-08-16T03:34:18;14.30;99.90
9699;DHT22;10089;47.876;8.346;2022-08-16T03:36:43;14.30;99.90
9699;DHT22;10089;47.876;8.346;2022-08-16T03:39:10;14.00;99.90
9699;DHT22;10089;47.876;8.346;2022-08-16T03:41:36;14.10;99.90
9699;DHT22;10089;47.876;8.346;2022-08-16T03:44:03;14.10;99.90
9699;DHT22;10089;47.876;8.346;2022-08-16T03:46:32;14.10;99.90
9699;DHT22;10089;47.876;8.346;2022-08-16T03:48:58;14.10;99.90
9699;DHT22;10089;47.876;8.346;2022-08-16T03:51:24;14.10;99.90
9699;DHT22;10089;47.876;8.346;2022-08-16T03:53:51;14.20;99.90
9699;DHT22;10089;47.876;8.346;2022-08-16T03:56:16;14.20;99.90
9699;DHT22;10089;47.876;8.346;2022-08-16T03:58:42;14.10;99.90
9699;DHT22;10089;47.876;8.346;2022-08-16T04:01:08;14.00;99.90
9699;DHT22;10089;47.876;8.346;2022-08-16T04:03:35;14.00;99.90
9699;DHT22;10089;47.876;8.346;2022-08-16T04:06:01;14.00;99.90
9699;DHT22;10089;47.876;8.346;2022-08-16T04:08:26;13.90;99.90
9699;DHT22;10089;47.876;8.346;2022-08-16T04:10:53;13.90;99.90
9699;DHT22;10089;47.876;8.346;2022-08-16T04:13:20;13.90;99.90
9699;DHT22;10089;47.876;8.346;2022-08-16T04:15:46;13.90;99.90
9699;DHT22;10089;47.876;8.346;2022-08-16T04:18:12;13.90;99.90
9699;DHT22;10089;47.876;8.346;2022-08-16T04:20:38;13.90;99.90
9699;DHT22;10089;47.876;8.346;2022-08-16T04:23:04;13.90;99.90
9699;DHT22;10089;47.876;8.346;2022-08-16T04:25:33;13.80;99.90
9699;DHT22;10089;47.876;8.346;2022-08-16T04:27:59;13.70;99.90
9699;DHT22;10089;47.876;8.346;2022-08-16T04:30:25;13.60;99.90
9699;DHT22;10089;47.876;8.346;2022-08-16T04:32:52;13.70;99.90
9699;DHT22;10089;47.876;8.346;2022-08-16T04:35:19;13.60;99.90
9699;DHT22;10089;47.876;8.346;2022-08-16T04:37:46;13.50;99.90
9699;DHT22;10089;47.876;8.346;2022-08-16T04:40:13;13.60;99.90
9699;DHT22;10089;47.876;8.346;2022-08-16T04:42:40;13.60;99.90
9699;DHT22;10089;47.876;8.346;2022-08-16T04:45:09;13.50;99.90
9699;DHT22;10089;47.876;8.346;2022-08-16T04:47:35;13.60;99.90
9699;DHT22;10089;47.876;8.346;2022-08-16T04:50:07;13.60;99.90
9699;DHT22;10089;47.876;8.346;2022-08-16T04:52:34;13.60;99.90
9699;DHT22;10089;47.876;8.346;2022-08-16T04:55:05;13.70;99.90
9699;DHT22;10089;47.876;8.346;2022-08-16T04:57:31;13.70;99.90
9699;DHT22;10089;47.876;8.346;2022-08-16T04:59:56;13.60;99.90
9699;DHT22;10089;47.876;8.346;2022-08-16T05:02:22;13.70;99.90
9699;DHT22;10089;47.876;8.346;2022-08-16T05:04:48;13.70;99.90
9699;DHT22;10089;47.876;8.346;2022-08-16T05:07:14;13.40;99.90
9699;DHT22;10089;47.876;8.346;2022-08-16T05:09:39;13.50;99.90
9699;DHT22;10089;47.876;8.346;2022-08-16T05:12:05;13.60;99.90
9699;DHT22;10089;47.876;8.346;2022-08-16T05:14:31;13.60;99.90
9699;DHT22;10089;47.876;8.346;2022-08-16T05:16:56;13.70;99.90
9699;DHT22;10089;47.876;8.346;2022-08-16T05:19:22;13.70;99.90
9699;DHT22;10089;47.876;8.346;2022-08-16T05:21:49;13.70;99.90
9699;DHT22;10089;47.876;8.346;2022-08-16T05:24:14;13.80;99.90
9699;DHT22;10089;47.876;8.346;2022-08-16T05:26:40;14.00;99.90
9699;DHT22;10089;47.876;8.346;2022-08-16T05:29:06;14.00;99.90
9699;DHT22;10089;47.876;8.346;2022-08-16T05:31:32;14.40;99.90
9699;DHT22;10089;47.876;8.346;2022-08-16T05:34:00;14.80;99.90
9699;DHT22;10089;47.876;8.346;2022-08-16T05:36:26;15.20;99.90
9699;DHT22;10089;47.876;8.346;2022-08-16T05:38:52;15.50;99.90
9699;DHT22;10089;47.876;8.346;2022-08-16T05:41:18;15.90;99.90
9699;DHT22;10089;47.876;8.346;2022-08-16T05:43:44;16.10;99.90
9699;DHT22;10089;47.876;8.346;2022-08-16T05:46:11;16.50;99.90
9699;DHT22;10089;47.876;8.346;2022-08-16T05:48:36;16.70;99.90
9699;DHT22;10089;47.876;8.346;2022-08-16T05:51:02;17.20;99.90
9699;DHT22;10089;47.876;8.346;2022-08-16T05:53:28;17.40;99.90
9699;DHT22;10089;47.876;8.346;2022-08-16T05:55:54;17.70;99.90
9699;DHT22;10089;47.876;8.346;2022-08-16T05:58:20;17.90;99.90
9699;DHT22;10089;47.876;8.346;2022-08-16T06:00:45;18.10;99.90
9699;DHT22;10089;47.876;8.346;2022-08-16T06:03:11;18.30;99.90
9699;DHT22;10089;47.876;8.346;2022-08-16T06:05:37;18.40;99.90
9699;DHT22;10089;47.876;8.346;2022-08-16T06:08:03;18.40;99.90
9699;DHT22;10089;47.876;8.346;2022-08-16T06:10:29;18.80;99.90
9699;DHT22;10089;47.876;8.346;2022-08-16T06:12:55;19.30;99.90
9699;DHT22;10089;47.876;8.346;2022-08-16T06:15:21;19.50;99.90
9699;DHT22;10089;47.876;8.346;2022-08-16T06:17:47;19.90;99.90
9699;DHT22;10089;47.876;8.346;2022-08-16T06:20:16;20.30;99.90
9699;DHT22;10089;47.876;8.346;2022-08-16T06:22:42;20.20;99.90
9699;DHT22;10089;47.876;8.346;2022-08-16T06:25:12;20.50;99.90
9699;DHT22;10089;47.876;8.346;2022-08-16T06:27:38;20.60;99.90
9699;DHT22;10089;47.876;8.346;2022-08-16T06:30:09;20.60;99.90
9699;DHT22;10089;47.876;8.346;2022-08-16T06:32:36;20.70;99.90
9699;DHT22;10089;47.876;8.346;2022-08-16T06:35:02;20.60;99.90
9699;DHT22;10089;47.876;8.346;2022-08-16T06:37:28;21.20;99.90
9699;DHT22;10089;47.876;8.346;2022-08-16T06:39:54;21.40;99.90
9699;DHT22;10089;47.876;8.346;2022-08-16T06:42:19;21.70;99.90
9699;DHT22;10089;47.876;8.346;2022-08-16T06:44:45;21.30;99.90
9699;DHT22;10089;47.876;8.346;2022-08-16T06:47:11;21.00;99.90
9699;DHT22;10089;47.876;8.346;2022-08-16T06:49:38;20.90;99.90
9699;DHT22;10089;47.876;8.346;2022-08-16T06:52:04;20.50;99.90
9699;DHT22;10089;47.876;8.346;2022-08-16T06:54:29;20.70;99.90
9699;DHT22;10089;47.876;8.346;2022-08-16T06:56:55;20.60;99.90
9699;DHT22;10089;47.876;8.346;2022-08-16T06:59:21;21.50;99.90
9699;DHT22;10089;47.876;8.346;2022-08-16T07:01:47;21.10;99.90
9699;DHT22;10089;47.876;8.346;2022-08-16T07:04:13;21.70;99.90
9699;DHT22;10089;47.876;8.346;2022-08-16T07:06:41;22.00;99.90
9699;DHT22;10089;47.876;8.346;2022-08-16T07:09:07;22.10;99.90
9699;DHT22;10089;47.876;8.346;2022-08-16T07:11:33;22.00;99.90
9699;DHT22;10089;47.876;8.346;2022-08-16T07:13:58;21.90;99.90
9699;DHT22;10089;47.876;8.346;2022-08-16T07:16:24;22.00;99.90
9699;DHT22;10089;47.876;8.346;2022-08-16T07:18:50;22.60;99.90
9699;DHT22;10089;47.876;8.346;2022-08-16T07:21:17;21.20;99.90
9699;DHT22;10089;47.876;8.346;2022-08-16T07:23:44;21.70;99.90
9699;DHT22;10089;47.876;8.346;2022-08-16T07:26:17;21.60;99.90
9699;DHT22;10089;47.876;8.346;2022-08-16T07:28:44;21.90;99.90
9699;DHT22;10089;47.876;8.346;2022-08-16T07:31:10;22.50;99.90
9699;DHT22;10089;47.876;8.346;2022-08-16T07:33:36;22.80;99.90
9699;DHT22;10089;47.876;8.346;2022-08-16T07:36:04;22.10;99.90
9699;DHT22;10089;47.876;8.346;2022-08-16T07:38:30;21.40;99.90
9699;DHT22;10089;47.876;8.346;2022-08-16T07:40:56;22.10;99.90
9699;DHT22;10089;47.876;8.346;2022-08-16T07:43:23;21.70;99.90
9699;DHT22;10089;47.876;8.346;2022-08-16T07:45:49;22.70;99.90
9699;DHT22;10089;47.876;8.346;2022-08-16T07:48:16;23.10;99.90
9699;DHT22;10089;47.876;8.346;2022-08-16T07:50:42;21.90;99.90
9699;DHT22;10089;47.876;8.346;2022-08-16T07:53:08;22.90;99.90
9699;DHT22;10089;47.876;8.346;2022-08-16T07:55:34;22.70;99.90
9699;DHT22;10089;47.876;8.346;2022-08-16T07:58:00;23.60;99.90
9699;DHT22;10089;47.876;8.346;2022-08-16T08:00:27;23.70;99.90
9699;DHT22;10089;47.876;8.346;2022-08-16T08:02:53;24.10;99.90
9699;DHT22;10089;47.876;8.346;2022-08-16T08:05:21;22.90;99.90
9699;DHT22;10089;47.876;8.346;2022-08-16T08:07:48;22.70;99.90
9699;DHT22;10089;47.876;8.346;2022-08-16T08:10:14;22.60;99.90
9699;DHT22;10089;47.876;8.346;2022-08-16T08:12:41;21.90;99.90
9699;DHT22;10089;47.876;8.346;2022-08-16T08:15:09;21.90;99.90
9699;DHT22;10089;47.876;8.346;2022-08-16T08:17:35;21.80;99.90
9699;DHT22;10089;47.876;8.346;2022-08-16T08:20:05;23.00;99.90
9699;DHT22;10089;47.876;8.346;2022-08-16T08:22:32;22.60;99.90
9699;DHT22;10089;47.876;8.346;2022-08-16T08:24:59;21.90;99.90
9699;DHT22;10089;47.876;8.346;2022-08-16T08:27:24;21.70;99.90
9699;DHT22;10089;47.876;8.346;2022-08-16T08:29:50;22.60;99.90
9699;DHT22;10089;47.876;8.346;2022-08-16T08:32:16;22.50;99.90
9699;DHT22;10089;47.876;8.346;2022-08-16T08:34:46;22.40;99.90
9699;DHT22;10089;47.876;8.346;2022-08-16T08:37:13;22.90;99.90
9699;DHT22;10089;47.876;8.346;2022-08-16T08:39:38;22.60;99.90
9699;DHT22;10089;47.876;8.346;2022-08-16T08:42:05;23.00;99.90
9699;DHT22;10089;47.876;8.346;2022-08-16T08:44:33;21.80;99.90
9699;DHT22;10089;47.876;8.346;2022-08-16T08:47:01;22.30;99.90
9699;DHT22;10089;47.876;8.346;2022-08-16T08:49:29;21.70;99.90
9699;DHT22;10089;47.876;8.346;2022-08-16T08:51:55;21.90;99.90
9699;DHT22;10089;47.876;8.346;2022-08-16T08:54:21;22.00;99.90
9699;DHT22;10089;47.876;8.346;2022-08-16T08:56:47;22.30;99.90
9699;DHT22;10089;47.876;8.346;2022-08-16T08:59:13;23.60;99.90
9699;DHT22;10089;47.876;8.346;2022-08-16T09:01:40;23.50;99.90
9699;DHT22;10089;47.876;8.346;2022-08-16T09:04:07;24.40;99.90
9699;DHT22;10089;47.876;8.346;2022-08-16T09:06:34;24.20;99.90
9699;DHT22;10089;47.876;8.346;2022-08-16T09:09:00;24.60;99.90
9699;DHT22;10089;47.876;8.346;2022-08-16T09:11:27;25.00;99.90
9699;DHT22;10089;47.876;8.346;2022-08-16T09:13:53;24.60;99.90
9699;DHT22;10089;47.876;8.346;2022-08-16T09:16:18;24.50;99.90
9699;DHT22;10089;47.876;8.346;2022-08-16T09:18:45;25.20;99.90
9699;DHT22;10089;47.876;8.346;2022-08-16T09:21:11;25.60;99.90
9699;DHT22;10089;47.876;8.346;2022-08-16T09:23:38;24.90;99.90
9699;DHT22;10089;47.876;8.346;2022-08-16T09:26:06;24.80;99.90
9699;DHT22;10089;47.876;8.346;2022-08-16T09:28:33;25.00;99.90
9699;DHT22;10089;47.876;8.346;2022-08-16T09:30:59;24.70;99.90
9699;DHT22;10089;47.876;8.346;2022-08-16T09:33:25;23.80;99.90
9699;DHT22;10089;47.876;8.346;2022-08-16T09:35:51;22.70;99.90
9699;DHT22;10089;47.876;8.346;2022-08-16T09:38:16;22.90;99.90
9699;DHT22;10089;47.876;8.346;2022-08-16T09:40:45;23.20;99.90
9699;DHT22;10089;47.876;8.346;2022-08-16T09:43:17;23.30;99.90
9699;DHT22;10089;47.876;8.346;2022-08-16T09:45:43;23.10;99.90
9699;DHT22;10089;47.876;8.346;2022-08-16T09:48:11;23.60;99.90
9699;DHT22;10089;47.876;8.346;2022-08-16T09:50:37;23.30;99.90
9699;DHT22;10089;47.876;8.346;2022-08-16T09:53:15;23.30;99.90
9699;DHT22;10089;47.876;8.346;2022-08-16T09:55:44;24.00;99.90
9699;DHT22;10089;47.876;8.346;2022-08-16T09:58:11;24.80;99.90
9699;DHT22;10089;47.876;8.346;2022-08-16T10:00:37;24.60;99.90
9699;DHT22;10089;47.876;8.346;2022-08-16T10:03:03;24.30;99.90
9699;DHT22;10089;47.876;8.346;2022-08-16T10:05:31;24.20;99.90
9699;DHT22;10089;47.876;8.346;2022-08-16T10:07:58;24.10;99.90
9699;DHT22;10089;47.876;8.346;2022-08-16T10:10:24;24.70;99.90
9699;DHT22;10089;47.876;8.346;2022-08-16T10:12:50;24.70;99.90
9699;DHT22;10089;47.876;8.346;2022-08-16T10:15:35;25.50;99.90
9699;DHT22;10089;47.876;8.346;2022-08-16T10:18:02;25.50;99.90
9699;DHT22;10089;47.876;8.346;2022-08-16T10:20:33;25.00;99.90
9699;DHT22;10089;47.876;8.346;2022-08-16T10:23:01;25.10;99.90
9699;DHT22;10089;47.876;8.346;2022-08-16T10:25:27;24.60;99.90
9699;DHT22;10089;47.876;8.346;2022-08-16T10:27:53;24.70;99.90
9699;DHT22;10089;47.876;8.346;2022-08-16T10:30:18;25.20;99.90
9699;DHT22;10089;47.876;8.346;2022-08-16T10:32:44;25.10;99.90
9699;DHT22;10089;47.876;8.346;2022-08-16T10:35:10;24.80;99.90
9699;DHT22;10089;47.876;8.346;2022-08-16T10:37:36;24.60;99.90
9699;DHT22;10089;47.876;8.346;2022-08-16T10:40:06;25.10;99.90
9699;DHT22;10089;47.876;8.346;2022-08-16T10:42:33;24.80;99.90
9699;DHT22;10089;47.876;8.346;2022-08-16T10:44:59;25.00;99.90
9699;DHT22;10089;47.876;8.346;2022-08-16T10:47:24;25.70;99.90
9699;DHT22;10089;47.876;8.346;2022-08-16T10:49:50;26.20;99.90
9699;DHT22;10089;47.876;8.346;2022-08-16T10:52:16;25.10;99.90
9699;DHT22;10089;47.876;8.346;2022-08-16T10:54:42;25.90;99.90
9699;DHT22;10089;47.876;8.346;2022-08-16T10:57:08;25.90;99.90
9699;DHT22;10089;47.876;8.346;2022-08-16T10:59:34;26.30;99.90
9699;DHT22;10089;47.876;8.346;2022-08-16T11:02:00;26.30;99.90
9699;DHT22;10089;47.876;8.346;2022-08-16T11:04:26;25.00;99.90
9699;DHT22;10089;47.876;8.346;2022-08-16T11:06:53;25.50;99.90
9699;DHT22;10089;47.876;8.346;2022-08-16T11:09:19;25.90;99.90
9699;DHT22;10089;47.876;8.346;2022-08-16T11:11:45;26.70;99.90
9699;DHT22;10089;47.876;8.346;2022-08-16T11:14:10;26.90;99.90
9699;DHT22;10089;47.876;8.346;2022-08-16T11:16:37;27.30;99.90
9699;DHT22;10089;47.876;8.346;2022-08-16T11:19:03;27.70;99.90
9699;DHT22;10089;47.876;8.346;2022-08-16T11:21:31;27.30;99.90
9699;DHT22;10089;47.876;8.346;2022-08-16T11:23:56;26.90;99.90
9699;DHT22;10089;47.876;8.346;2022-08-16T11:26:24;26.70;99.90
9699;DHT22;10089;47.876;8.346;2022-08-16T11:28:49;26.50;99.90
9699;DHT22;10089;47.876;8.346;2022-08-16T11:31:15;26.90;99.90
9699;DHT22;10089;47.876;8.346;2022-08-16T11:33:41;26.50;99.90
9699;DHT22;10089;47.876;8.346;2022-08-16T11:36:07;25.30;99.90
9699;DHT22;10089;47.876;8.346;2022-08-16T11:38:32;26.00;99.90
9699;DHT22;10089;47.876;8.346;2022-08-16T11:40:59;26.60;99.90
9699;DHT22;10089;47.876;8.346;2022-08-16T11:43:30;26.90;98.80
9699;DHT22;10089;47.876;8.346;2022-08-16T11:45:57;26.10;99.60
9699;DHT22;10089;47.876;8.346;2022-08-16T11:48:24;26.20;99.70
9699;DHT22;10089;47.876;8.346;2022-08-16T11:50:50;26.50;99.00
9699;DHT22;10089;47.876;8.346;2022-08-16T11:53:15;27.20;99.20
9699;DHT22;10089;47.876;8.346;2022-08-16T11:55:41;26.80;98.70
9699;DHT22;10089;47.876;8.346;2022-08-16T11:58:08;26.50;97.70
9699;DHT22;10089;47.876;8.346;2022-08-16T12:00:35;26.40;98.60
9699;DHT22;10089;47.876;8.346;2022-08-16T12:03:01;27.40;97.70
9699;DHT22;10089;47.876;8.346;2022-08-16T12:05:27;27.20;96.40
9699;DHT22;10089;47.876;8.346;2022-08-16T12:07:53;27.30;95.70
9699;DHT22;10089;47.876;8.346;2022-08-16T12:10:23;27.80;95.80
9699;DHT22;10089;47.876;8.346;2022-08-16T12:12:49;27.20;95.20
9699;DHT22;10089;47.876;8.346;2022-08-16T12:15:16;27.30;95.20
9699;DHT22;10089;47.876;8.346;2022-08-16T12:17:42;27.30;95.20
9699;DHT22;10089;47.876;8.346;2022-08-16T12:20:10;27.70;93.90
9699;DHT22;10089;47.876;8.346;2022-08-16T12:22:37;27.90;93.70
9699;DHT22;10089;47.876;8.346;2022-08-16T12:25:07;27.60;94.10
9699;DHT22;10089;47.876;8.346;2022-08-16T12:27:33;28.20;93.40
9699;DHT22;10089;47.876;8.346;2022-08-16T12:30:00;28.80;92.00
9699;DHT22;10089;47.876;8.346;2022-08-16T12:32:26;29.00;91.00
9699;DHT22;10089;47.876;8.346;2022-08-16T12:34:52;29.00;91.20
9699;DHT22;10089;47.876;8.346;2022-08-16T12:37:17;27.90;91.50
9699;DHT22;10089;47.876;8.346;2022-08-16T12:39:43;27.70;91.90
9699;DHT22;10089;47.876;8.346;2022-08-16T12:42:09;26.90;93.00
9699;DHT22;10089;47.876;8.346;2022-08-16T12:44:37;26.60;93.00
9699;DHT22;10089;47.876;8.346;2022-08-16T12:47:06;27.40;92.30
9699;DHT22;10089;47.876;8.346;2022-08-16T12:49:50;27.20;92.20
9699;DHT22;10089;47.876;8.346;2022-08-16T12:52:16;27.40;92.10
9699;DHT22;10089;47.876;8.346;2022-08-16T12:54:41;27.80;91.20
9699;DHT22;10089;47.876;8.346;2022-08-16T12:57:07;27.90;91.20
9699;DHT22;10089;47.876;8.346;2022-08-16T12:59:33;27.30;91.00
9699;DHT22;10089;47.876;8.346;2022-08-16T13:01:59;27.40;90.80
9699;DHT22;10089;47.876;8.346;2022-08-16T13:04:26;26.80;91.60
9699;DHT22;10089;47.876;8.346;2022-08-16T13:06:53;27.40;91.40
9699;DHT22;10089;47.876;8.346;2022-08-16T13:09:21;26.90;90.90
9699;DHT22;10089;47.876;8.346;2022-08-16T13:11:57;26.90;91.00
9699;DHT22;10089;47.876;8.346;2022-08-16T13:14:29;26.80;91.00
9699;DHT22;10089;47.876;8.346;2022-08-16T13:16:58;27.30;90.70
9699;DHT22;10089;47.876;8.346;2022-08-16T13:19:23;27.30;90.00
9699;DHT22;10089;47.876;8.346;2022-08-16T13:21:49;26.30;91.20
9699;DHT22;10089;47.876;8.346;2022-08-16T13:24:14;26.90;90.90
9699;DHT22;10089;47.876;8.346;2022-08-16T13:26:40;27.10;90.50
9699;DHT22;10089;47.876;8.346;2022-08-16T13:29:05;27.60;89.60
9699;DHT22;10089;47.876;8.346;2022-08-16T13:31:31;26.30;90.70
9699;DHT22;10089;47.876;8.346;2022-08-16T13:33:57;26.70;90.80
9699;DHT22;10089;47.876;8.346;2022-08-16T13:36:22;27.10;90.50
9699;DHT22;10089;47.876;8.346;2022-08-16T13:38:48;26.50;90.80
9699;DHT22;10089;47.876;8.346;2022-08-16T13:41:13;26.50;90.50
9699;DHT22;10089;47.876;8.346;2022-08-16T13:43:39;26.20;90.70
9699;DHT22;10089;47.876;8.346;2022-08-16T13:46:06;26.30;91.00
9699;DHT22;10089;47.876;8.346;2022-08-16T13:48:32;26.30;90.50
9699;DHT22;10089;47.876;8.346;2022-08-16T13:50:57;26.20;91.30
9699;DHT22;10089;47.876;8.346;2022-08-16T13:53:24;26.80;89.00
9699;DHT22;10089;47.876;8.346;2022-08-16T13:55:52;26.00;90.10
9699;DHT22;10089;47.876;8.346;2022-08-16T13:58:18;25.90;90.50
9699;DHT22;10089;47.876;8.346;2022-08-16T14:00:44;25.90;90.40
9699;DHT22;10089;47.876;8.346;2022-08-16T14:03:09;26.10;90.00
9699;DHT22;10089;47.876;8.346;2022-08-16T14:05:35;25.90;89.90
9699;DHT22;10089;47.876;8.346;2022-08-16T14:08:01;25.80;90.00
9699;DHT22;10089;47.876;8.346;2022-08-16T14:10:26;25.90;90.00
9699;DHT22;10089;47.876;8.346;2022-08-16T14:12:52;26.20;89.20
9699;DHT22;10089;47.876;8.346;2022-08-16T14:15:17;26.50;87.40
9699;DHT22;10089;47.876;8.346;2022-08-16T14:17:45;26.60;85.70
9699;DHT22;10089;47.876;8.346;2022-08-16T14:20:11;26.60;85.90
9699;DHT22;10089;47.876;8.346;2022-08-16T14:22:39;26.90;85.20
9699;DHT22;10089;47.876;8.346;2022-08-16T14:25:05;26.90;83.80
9699;DHT22;10089;47.876;8.346;2022-08-16T14:27:31;26.80;85.90
9699;DHT22;10089;47.876;8.346;2022-08-16T14:29:58;26.90;84.60
9699;DHT22;10089;47.876;8.346;2022-08-16T14:32:24;26.50;85.40
9699;DHT22;10089;47.876;8.346;2022-08-16T14:34:52;26.60;84.90
9699;DHT22;10089;47.876;8.346;2022-08-16T14:37:17;26.30;84.30
9699;DHT22;10089;47.876;8.346;2022-08-16T14:39:43;26.20;85.70
9699;DHT22;10089;47.876;8.346;2022-08-16T14:42:10;26.30;83.80
9699;DHT22;10089;47.876;8.346;2022-08-16T14:44:36;25.70;84.60
9699;DHT22;10089;47.876;8.346;2022-08-16T14:47:02;25.70;84.30
9699;DHT22;10089;47.876;8.346;2022-08-16T14:49:28;26.00;85.30
9699;DHT22;10089;47.876;8.346;2022-08-16T14:51:57;26.00;84.00
9699;DHT22;10089;47.876;8.346;2022-08-16T14:54:23;26.10;82.60
9699;DHT22;10089;47.876;8.346;2022-08-16T14:56:48;26.50;82.80
9699;DHT22;10089;47.876;8.346;2022-08-16T14:59:15;26.20;82.70
9699;DHT22;10089;47.876;8.346;2022-08-16T15:01:40;26.20;82.70
9699;DHT22;10089;47.876;8.346;2022-08-16T15:04:06;26.50;81.40
9699;DHT22;10089;47.876;8.346;2022-08-16T15:06:32;26.50;80.20
9699;DHT22;10089;47.876;8.346;2022-08-16T15:08:58;26.30;79.00
9699;DHT22;10089;47.876;8.346;2022-08-16T15:11:23;26.10;81.10
9699;DHT22;10089;47.876;8.346;2022-08-16T15:13:49;26.40;80.30
9699;DHT22;10089;47.876;8.346;2022-08-16T15:16:15;26.10;79.60
9699;DHT22;10089;47.876;8.346;2022-08-16T15:18:40;26.30;79.40
9699;DHT22;10089;47.876;8.346;2022-08-16T15:21:06;26.40;79.30
9699;DHT22;10089;47.876;8.346;2022-08-16T15:23:32;26.60;79.70
9699;DHT22;10089;47.876;8.346;2022-08-16T15:25:57;26.60;79.00
9699;DHT22;10089;47.876;8.346;2022-08-16T15:28:23;26.70;76.60
9699;DHT22;10089;47.876;8.346;2022-08-16T15:30:49;26.40;75.50
9699;DHT22;10089;47.876;8.346;2022-08-16T15:33:18;26.50;76.00
9699;DHT22;10089;47.876;8.346;2022-08-16T15:35:44;26.70;74.40
9699;DHT22;10089;47.876;8.346;2022-08-16T15:38:11;26.70;74.00
9699;DHT22;10089;47.876;8.346;2022-08-16T15:40:37;26.70;68.20
9699;DHT22;10089;47.876;8.346;2022-08-16T15:43:04;26.70;70.80
9699;DHT22;10089;47.876;8.346;2022-08-16T15:45:31;26.80;70.00